Time;durP1;ratioP1;P1;durP2;ratioP2;P2;SDS_P1;SDS_P2;PMS_P1;PMS_P2;Temp;Humidity;BMP_temperature;BMP_pressure;BME280_temperature;BME280_humidity;BME280_pressure;Samples;Min_cycle;Max_cycle;Signal;HPM_P1;HPM_P2
2023/08/20 00:00:04;;;;;;;;;;;;;;;22.36;70.98;100480.56;30727009;28;97028;-72
2023/08/20 00:15:05;;;;;;;;;;;;;;;22.15;71.01;100478.22;30725536;28;97214;-71
2023/08/20 00:30:06;;;;;;;15.20;13.57;;;;;;;22.12;71.48;100475.19;30724834;28;97235;-72
2023/08/20 00:45:07;;;;;;;16.20;12.53;;;;;;;22.07;71.86;100462.31;30721970;28;97191;-72
2023/08/20 01:00:09;;;;;;;18.63;13.45;;;;;;;21.91;72.22;100469.34;30720503;28;97124;-72
2023/08/20 01:15:13;;;;;;;13.27;11.87;;;;;;;21.61;72.41;100473.03;30719484;28;97867;-72
2023/08/20 01:30:15;;;;;;;13.83;12.27;;;;;;;21.32;73.55;100465.81;30717388;28;97665;-71
2023/08/20 01:45:15;;;;;;;14.50;12.40;;;;;;;21.16;74.00;100462.75;30717627;28;96752;-71
2023/08/20 02:00:15;;;;;;;13.67;11.43;;;;;;;21.03;74.51;100465.66;30715863;28;97120;-71
2023/08/20 02:15:16;;;;;;;13.33;11.83;;;;;;;20.80;74.79;100475.38;30714289;28;97263;-72
2023/08/20 02:30:16;;;;;;;16.13;13.53;;;;;;;20.55;75.34;100484.44;30733805;28;97292;-72
2023/08/20 02:45:16;;;;;;;16.80;14.33;;;;;;;20.45;75.84;100478.75;30733729;28;96729;-72
2023/08/20 03:00:17;;;;;;;19.13;14.57;;;;;;;20.46;76.51;100474.97;30732788;28;96830;-72
2023/08/20 03:15:17;;;;;;;19.40;15.10;;;;;;;20.36;76.49;100482.81;30731067;28;101233;-72
2023/08/20 03:30:17;;;;;;;15.23;12.90;;;;;;;20.20;76.97;100492.38;30728722;28;97362;-72
2023/08/20 03:45:18;;;;;;;17.73;13.53;;;;;;;20.15;76.96;100503.91;30729325;28;97279;-72
2023/08/20 04:00:18;;;;;;;23.13;12.87;;;;;;;20.17;77.13;100492.84;30725389;28;108766;-72
2023/08/20 04:15:18;;;;;;;18.27;12.40;;;;;;;20.21;77.22;100505.69;30724938;28;96722;-72
2023/08/20 04:30:19;;;;;;;17.93;13.40;;;;;;;20.36;77.20;100501.78;30721848;28;110446;-72
2023/08/20 04:45:20;;;;;;;13.90;11.65;;;;;;;20.55;77.11;100522.31;30720782;28;97495;-71
2023/08/20 05:00:22;;;;;;;15.77;11.70;;;;;;;20.95;77.10;100531.81;30719871;28;97950;-72
2023/08/20 05:15:22;;;;;;;14.23;12.43;;;;;;;;;;30717646;28;96769;-72
2023/08/20 05:30:22;;;;;;;14.50;11.50;;;;;;;22.00;75.97;100537.59;30717699;28;97094;-72
2023/08/20 05:45:23;;;;;;;14.68;11.60;;;;;;;22.64;75.02;100542.19;30717067;28;97306;-72
2023/08/20 06:00:23;;;;;;;14.23;10.52;;;;;;;23.32;73.85;100559.47;30714204;28;115935;-72
2023/08/20 06:15:23;;;;;;;11.20;9.60;;;;;;;24.09;72.70;100562.56;30713064;28;97823;-72
2023/08/20 06:30:24;;;;;;;13.30;10.80;;;;;;;24.85;70.11;100569.22;30712608;28;96691;-73
2023/08/20 06:45:24;;;;;;;10.85;8.70;;;;;;;25.90;68.31;100567.91;30711992;28;111248;-71
2023/08/20 07:00:24;;;;;;;10.57;8.65;;;;;;;27.09;65.36;100571.97;30709757;28;99305;-72
2023/08/20 07:15:25;;;;;;;10.70;7.72;;;;;;;28.06;61.92;100585.91;30726844;28;108180;-71
2023/08/20 07:30:25;;;;;;;9.85;7.47;;;;;;;29.02;58.51;100597.56;30727195;28;96730;-72
2023/08/20 07:45:26;;;;;;;12.77;6.68;;;;;;;29.78;55.28;100596.44;30727336;28;96874;-72
2023/08/20 08:00:26;;;;;;;6.82;5.88;;;;;;;30.77;51.11;100606.03;30726644;28;97021;-72
2023/08/20 08:15:26;;;;;;;10.20;6.95;;;;;;;31.64;47.64;100606.66;30724104;28;107849;-72
2023/08/20 08:30:27;;;;;;;7.25;6.25;;;;;;;32.86;44.91;100606.50;30723604;28;114891;-73
2023/08/20 08:45:29;;;;;;;8.57;5.00;;;;;;;34.99;41.33;100609.66;30721178;28;98536;-72
2023/08/20 09:00:32;;;;;;;5.00;4.33;;;;;;;37.29;34.80;100611.97;30719397;28;96841;-73
2023/08/20 09:15:35;;;;;;;6.20;5.60;;;;;;;36.64;34.37;100620.59;30717039;28;97438;-73
2023/08/20 09:30:36;;;;;;;6.07;4.73;;;;;;;34.82;36.12;100629.84;30714809;28;97030;-73
2023/08/20 09:45:37;;;;;;;7.53;6.03;;;;;;;34.17;37.72;100648.00;30699639;28;97093;-73
2023/08/20 10:00:38;;;;;;;7.72;6.70;;;;;;;33.97;38.78;100641.91;30716254;28;97130;-72
2023/08/20 10:15:39;;;;;;;6.37;4.93;;;;;;;35.16;35.97;100636.53;30714204;28;97713;-72
2023/08/20 10:31:02;;;;;;;7.15;5.05;;;;;;;35.97;34.15;100631.38;30711284;28;97292;-72
2023/08/20 10:46:21;;;;;;;8.27;5.63;;;;;;;38.22;31.59;100624.63;30725008;28;97058;-73
2023/08/20 11:01:22;;;;;;;7.40;5.03;;;;;;;38.70;30.55;100623.03;30731769;28;97525;-73
2023/08/20 11:16:23;;;;;;;8.23;5.90;;;;;;;38.20;30.48;100618.63;30728655;28;97593;-73
2023/08/20 11:31:23;;;;;;;8.20;4.35;;;;;;;37.59;29.80;100603.47;30729175;28;96738;-73
2023/08/20 11:46:24;;;;;;;7.70;4.70;;;;;;;37.55;29.66;100616.44;30728260;28;97261;-73
2023/08/20 12:01:24;;;;;;;6.72;4.93;;;;;;;37.17;29.21;100603.53;30724276;28;97635;-73
2023/08/20 12:16:25;;;;;;;6.22;4.50;;;;;;;37.30;29.68;100588.59;30723933;28;97373;-73
2023/08/20 12:31:25;;;;;;;6.63;5.38;;;;;;;37.40;29.84;100576.22;30722808;28;97141;-73
2023/08/20 12:46:25;;;;;;;8.00;5.57;;;;;;;38.05;28.96;100570.88;30721832;28;97067;-73
2023/08/20 13:01:26;;;;;;;5.93;5.30;;;;;;;37.06;29.21;100573.44;30720686;28;97062;-73
2023/08/20 13:16:26;;;;;;;8.35;5.18;;;;;;;37.78;29.54;100561.25;30719009;28;97224;-73
2023/08/20 13:31:27;;;;;;;7.47;4.70;;;;;;;37.76;28.82;100564.38;30717471;28;97441;-73
2023/08/20 13:46:28;;;;;;;7.00;5.07;;;;;;;37.19;30.08;100548.50;30714489;28;113912;-73
2023/08/20 14:01:28;;;;;;;6.67;4.60;;;;;;;36.64;30.23;100544.88;30715216;28;97212;-73
2023/08/20 14:16:28;;;;;;;7.78;4.70;;;;;;;36.21;30.22;100538.44;30720019;28;96848;-73
2023/08/20 14:31:30;;;;;;;5.47;4.05;;;;;;;36.44;30.50;100532.63;30733913;28;106499;-73
2023/08/20 14:46:31;;;;;;;5.23;4.70;;;;;;;35.92;30.20;100529.84;30734399;28;97262;-74
2023/08/20 15:01:31;;;;;;;5.20;3.90;;;;;;;34.34;30.99;100545.00;30732800;28;97291;-73
2023/08/20 15:16:31;;;;;;;5.28;3.92;;;;;;;33.88;31.35;100514.75;30729188;28;108763;-74
2023/08/20 15:31:32;;;;;;;7.18;4.13;;;;;;;33.66;31.60;100503.78;30728551;28;101308;-73
2023/08/20 15:46:32;;;;;;;6.20;3.92;;;;;;;33.73;31.88;100496.63;30727405;28;97346;-74
2023/08/20 16:01:33;;;;;;;8.70;4.53;;;;;;;33.20;32.45;100491.97;30727360;28;97293;-74
2023/08/20 16:16:33;;;;;;;5.18;4.55;;;;;;;32.85;34.46;100486.25;30724944;28;97381;-73
2023/08/20 16:31:34;;;;;;;7.05;4.95;;;;;;;32.47;35.96;100498.41;30722188;28;112341;-74
2023/08/20 16:46:34;;;;;;;7.28;5.20;;;;;;;32.13;36.45;100498.84;30721193;28;97332;-73
2023/08/20 17:01:35;;;;;;;8.52;5.10;;;;;;;31.78;37.57;100512.22;30720546;28;96759;-74
2023/08/20 17:16:35;;;;;;;8.95;5.70;;;;;;;31.38;38.78;100507.16;30719183;28;97492;-73
2023/08/20 17:31:36;;;;;;;6.53;5.85;;;;;;;30.94;40.17;100520.25;30716793;28;97206;-73
2023/08/20 17:46:47;;;;;;;9.63;5.93;;;;;;;30.43;41.87;100523.72;30716224;28;103618;-73
2023/08/20 18:01:47;;;;;;;11.77;7.43;;;;;;;31.27;43.72;100525.78;30589775;28;97650;-72
2023/08/20 18:16:47;;;;;;;15.55;6.97;;;;;;;31.71;42.89;100542.94;30581370;28;105551;-72
2023/08/20 18:31:50;;;;;;;15.27;8.38;;;;;;;30.81;45.46;100549.34;30576517;28;112906;-72
2023/08/20 18:46:51;;;;;;;8.20;7.27;;;;;;;29.86;46.48;100580.16;30588784;28;97016;-72
2023/08/20 19:01:51;;;;;;;9.60;7.47;;;;;;;29.59;47.14;100588.91;30591750;28;108812;-71
2023/08/20 19:16:51;;;;;;;9.98;7.60;;;;;;;29.38;48.09;100589.09;30592718;28;111769;-71
2023/08/20 19:31:51;;;;;;;9.50;8.30;;;;;;;29.31;48.51;100591.34;30598573;28;97456;-70
2023/08/20 19:46:52;;;;;;;9.02;7.72;;;;;;;28.83;49.44;100613.03;30594826;28;115800;-73
2023/08/20 20:01:52;;;;;;;12.55;8.63;;;;;;;28.29;51.19;100620.09;30595787;28;104353;-74
2023/08/20 20:16:53;;;;;;;14.45;8.77;;;;;;;27.29;52.63;100608.63;30593679;28;97269;-74
2023/08/20 20:31:53;;;;;;;11.48;8.48;;;;;;;26.62;54.66;100625.66;30594847;28;101055;-74
2023/08/20 20:46:53;;;;;;;13.85;8.95;;;;;;;26.07;56.48;100627.03;30593227;28;113010;-72
2023/08/20 21:01:54;;;;;;;15.63;10.13;;;;;;;25.80;58.06;100638.81;30592243;28;110879;-72
2023/08/20 21:16:54;;;;;;;14.43;9.13;;;;;;;25.66;59.63;100639.25;30590357;28;97204;-73
2023/08/20 21:31:54;;;;;;;13.63;9.90;;;;;;;25.71;60.22;100624.00;30588718;28;106143;-73
2023/08/20 21:46:56;;;;;;;13.05;9.50;;;;;;;25.61;60.68;100635.66;30588403;28;110994;-73
2023/08/20 22:01:56;;;;;;;10.40;8.87;;;;;;;25.04;61.82;100621.44;30586014;28;97091;-73
2023/08/20 22:16:56;;;;;;;11.98;9.07;;;;;;;26.98;60.70;100624.97;30594283;28;109894;-71
2023/08/20 22:31:57;;;;;;;10.85;8.63;;;;;;;27.36;58.94;100626.44;30593031;28;96828;-71
2023/08/20 22:46:57;;;;;;;11.57;8.68;;;;;;;28.01;57.25;100625.09;30612088;28;97278;-71
2023/08/20 23:01:57;;;;;;;13.20;9.45;;;;;;;27.63;56.99;100619.06;30611840;28;103257;-71
2023/08/20 23:16:58;;;;;;;17.08;12.90;;;;;;;27.48;56.09;100623.44;30610516;28;97307;-71
2023/08/20 23:31:58;;;;;;;24.13;17.02;;;;;;;26.98;57.27;100627.72;30608528;28;111757;-71
2023/08/20 23:46:58;;;;;;;17.65;13.32;;;;;;;26.79;58.83;100625.50;30607470;28;97230;-71
